Mandelieu, France

9:06 PM CEST on August 23, 2014 (GMT +0200)
Mandelieu | Change Station
CLOSE
Current Station
Airport
Location: Cannes,
Elevation: 13 ft
Nearby Weather Stations

Elev 13 ft 43.54 °N, 6.95 °E | Updated 6 minutes ago

Clear
Clear
79 °F
Feels Like 79 °F
N
13
Wind Variable Wind from WNW

Today
High -- | Low -- °F
--% Chance of Precip.
Yesterday
High -- | Low -- °F
Precip. -- in
6:45 AM 8:23 PM
Waning Crescent, 3% visible
Pressure 29.80 in
Visibility 6.2 miles
Clouds
Dew Point 46 °F
Humidity 32%
Rainfall 0.00 in
Snow Depth Not available.
UV Not available.
Pollen Not available.
Air Quality Not available.
Flu Activity Not available.
METAR LFMD 231900Z AUTO 29011KT 240V330 9999 NSC 26/08 Q1009

More Conditions Fewer Conditions

Pressure 29.80 in
Visibility 6.2 miles
Clouds
Dew Point 46 °F
Humidity 32%
Rainfall 0.00 in
Snow Depth Not available.
UV Not available.
Pollen Not available.
Air Quality Not available.
Flu Activity Not available.
METAR LFMD 231900Z AUTO 29011KT 240V330 9999 NSC 26/08 Q1009

More Conditions Fewer Conditions

10-Day Weather Forecast

Almanac

Astronomy

Aug. 23, 2014 Rise Set
Actual Time 6:45 AM CEST 8:23 PM CEST
Civil Twilight 6:15 AM CEST 8:53 PM CEST
Nautical Twilight 5:38 AM CEST 9:29 PM CEST
Astronomical Twilight 4:59 AM CEST 10:09 PM CEST
Moon 4:45 AM CEST 6:59 PM CEST
Length of Visible Light 14h 38m
Length of Day
13h 37m
Tomorrow will be 2m 47s shorter.
Waning Crescent, 3% of the Moon is Illuminated
Today
Waning Crescent
Aug 25
New
Sep 2
First Quarter
Sep 8
Full
Sep 15
Last Quarter

Today's Extremes

Country Highs Country Lows

Community

WunderPhotos

Upload Photos

1,746,580 photos uploaded!

WunderBlogs® & News

Nearby

Snow Depth

Not available.

Earthquake Activity

City Distance Mag. Time & Date
No recent earthquake activity has been reported nearby.
Minimum magnitude displayed is 2.5.

Coastal Water Temperatures

Place Temperature
No Stations Reporting

Nearby Weather Stations